sensor_id;sensor_type;location;lat;lon;timestamp;P1;durP1;ratioP1;P2;durP2;ratioP2
41530;SDS011;58990;46.284;13.126;2022-10-23T00:00:27;3.05;;;0.50;;
41530;SDS011;58990;46.284;13.126;2022-10-23T00:02:53;2.13;;;0.60;;
41530;SDS011;58990;46.284;13.126;2022-10-23T00:05:19;0.35;;;0.35;;
41530;SDS011;58990;46.284;13.126;2022-10-23T00:07:51;0.30;;;0.30;;
41530;SDS011;58990;46.284;13.126;2022-10-23T00:10:18;1.10;;;0.28;;
41530;SDS011;58990;46.284;13.126;2022-10-23T00:12:45;0.50;;;0.20;;
41530;SDS011;58990;46.284;13.126;2022-10-23T00:15:12;0.47;;;0.22;;
41530;SDS011;58990;46.284;13.126;2022-10-23T00:17:38;0.40;;;0.40;;
41530;SDS011;58990;46.284;13.126;2022-10-23T00:20:04;0.47;;;0.47;;
41530;SDS011;58990;46.284;13.126;2022-10-23T00:22:33;0.73;;;0.40;;
41530;SDS011;58990;46.284;13.126;2022-10-23T00:24:59;0.17;;;0.17;;
41530;SDS011;58990;46.284;13.126;2022-10-23T00:27:25;0.50;;;0.40;;
41530;SDS011;58990;46.284;13.126;2022-10-23T00:29:50;0.45;;;0.32;;
41530;SDS011;58990;46.284;13.126;2022-10-23T00:32:19;0.40;;;0.38;;
41530;SDS011;58990;46.284;13.126;2022-10-23T00:34:44;0.32;;;0.32;;
41530;SDS011;58990;46.284;13.126;2022-10-23T00:37:10;0.40;;;0.40;;
41530;SDS011;58990;46.284;13.126;2022-10-23T00:39:35;0.82;;;0.40;;
41530;SDS011;58990;46.284;13.126;2022-10-23T00:42:01;0.73;;;0.35;;
41530;SDS011;58990;46.284;13.126;2022-10-23T00:57:34;0.40;;;0.40;;
41530;SDS011;58990;46.284;13.126;2022-10-23T01:00:00;0.38;;;0.38;;
41530;SDS011;58990;46.284;13.126;2022-10-23T01:02:25;0.20;;;0.20;;
41530;SDS011;58990;46.284;13.126;2022-10-23T01:04:51;0.40;;;0.40;;
41530;SDS011;58990;46.284;13.126;2022-10-23T01:07:32;0.65;;;0.40;;
41530;SDS011;58990;46.284;13.126;2022-10-23T01:15:42;0.17;;;0.17;;
41530;SDS011;58990;46.284;13.126;2022-10-23T01:18:20;0.47;;;0.47;;
41530;SDS011;58990;46.284;13.126;2022-10-23T01:21:08;0.28;;;0.28;;
41530;SDS011;58990;46.284;13.126;2022-10-23T01:26:37;0.20;;;0.20;;
41530;SDS011;58990;46.284;13.126;2022-10-23T01:29:24;0.43;;;0.43;;
41530;SDS011;58990;46.284;13.126;2022-10-23T01:32:15;2.28;;;0.43;;
41530;SDS011;58990;46.284;13.126;2022-10-23T01:34:59;0.30;;;0.30;;
41530;SDS011;58990;46.284;13.126;2022-10-23T01:37:39;0.60;;;0.47;;
41530;SDS011;58990;46.284;13.126;2022-10-23T01:40:11;0.17;;;0.17;;
41530;SDS011;58990;46.284;13.126;2022-10-23T01:42:45;0.20;;;0.20;;
41530;SDS011;58990;46.284;13.126;2022-10-23T01:47:45;0.43;;;0.30;;
41530;SDS011;58990;46.284;13.126;2022-10-23T01:50:13;1.58;;;0.40;;
41530;SDS011;58990;46.284;13.126;2022-10-23T01:52:41;0.38;;;0.28;;
41530;SDS011;58990;46.284;13.126;2022-10-23T01:55:08;0.30;;;0.30;;
41530;SDS011;58990;46.284;13.126;2022-10-23T01:57:34;1.10;;;0.60;;
41530;SDS011;58990;46.284;13.126;2022-10-23T02:00:06;0.20;;;0.20;;
41530;SDS011;58990;46.284;13.126;2022-10-23T02:02:35;0.32;;;0.32;;
41530;SDS011;58990;46.284;13.126;2022-10-23T02:05:08;0.30;;;0.30;;
41530;SDS011;58990;46.284;13.126;2022-10-23T02:07:39;0.17;;;0.17;;
41530;SDS011;58990;46.284;13.126;2022-10-23T02:10:04;0.30;;;0.30;;
41530;SDS011;58990;46.284;13.126;2022-10-23T02:25:50;1.20;;;0.30;;
41530;SDS011;58990;46.284;13.126;2022-10-23T02:28:21;0.98;;;0.20;;
41530;SDS011;58990;46.284;13.126;2022-10-23T02:33:15;0.20;;;0.20;;
41530;SDS011;58990;46.284;13.126;2022-10-23T02:35:41;2.08;;;0.10;;
41530;SDS011;58990;46.284;13.126;2022-10-23T02:43:53;0.50;;;0.40;;
41530;SDS011;58990;46.284;13.126;2022-10-23T02:46:49;0.20;;;0.20;;
41530;SDS011;58990;46.284;13.126;2022-10-23T02:52:33;0.32;;;0.20;;
41530;SDS011;58990;46.284;13.126;2022-10-23T02:58:08;0.30;;;0.30;;
41530;SDS011;58990;46.284;13.126;2022-10-23T03:00:41;0.65;;;0.28;;
41530;SDS011;58990;46.284;13.126;2022-10-23T03:03:21;0.20;;;0.20;;
41530;SDS011;58990;46.284;13.126;2022-10-23T03:05:51;0.30;;;0.30;;
41530;SDS011;58990;46.284;13.126;2022-10-23T03:08:16;0.90;;;0.35;;
41530;SDS011;58990;46.284;13.126;2022-10-23T03:10:42;1.73;;;0.47;;
41530;SDS011;58990;46.284;13.126;2022-10-23T03:13:08;0.20;;;0.15;;
41530;SDS011;58990;46.284;13.126;2022-10-23T03:15:34;1.80;;;0.30;;
41530;SDS011;58990;46.284;13.126;2022-10-23T03:17:59;0.30;;;0.30;;
41530;SDS011;58990;46.284;13.126;2022-10-23T03:20:25;0.20;;;0.20;;
41530;SDS011;58990;46.284;13.126;2022-10-23T03:22:50;0.35;;;0.30;;
41530;SDS011;58990;46.284;13.126;2022-10-23T03:25:16;0.20;;;0.20;;
41530;SDS011;58990;46.284;13.126;2022-10-23T03:27:41;0.47;;;0.28;;
41530;SDS011;58990;46.284;13.126;2022-10-23T03:30:06;0.20;;;0.20;;
41530;SDS011;58990;46.284;13.126;2022-10-23T03:32:33;0.35;;;0.20;;
41530;SDS011;58990;46.284;13.126;2022-10-23T03:34:58;0.20;;;0.20;;
41530;SDS011;58990;46.284;13.126;2022-10-23T03:37:23;1.08;;;0.30;;
41530;SDS011;58990;46.284;13.126;2022-10-23T03:39:49;0.30;;;0.30;;
41530;SDS011;58990;46.284;13.126;2022-10-23T03:42:15;0.30;;;0.30;;
41530;SDS011;58990;46.284;13.126;2022-10-23T03:44:40;0.20;;;0.20;;
41530;SDS011;58990;46.284;13.126;2022-10-23T03:47:06;0.17;;;0.17;;
41530;SDS011;58990;46.284;13.126;2022-10-23T03:49:33;1.13;;;0.30;;
41530;SDS011;58990;46.284;13.126;2022-10-23T03:51:59;2.22;;;0.50;;
41530;SDS011;58990;46.284;13.126;2022-10-23T03:54:25;0.28;;;0.28;;
41530;SDS011;58990;46.284;13.126;2022-10-23T03:56:52;0.47;;;0.40;;
41530;SDS011;58990;46.284;13.126;2022-10-23T03:59:18;0.22;;;0.22;;
41530;SDS011;58990;46.284;13.126;2022-10-23T04:01:43;0.20;;;0.20;;
41530;SDS011;58990;46.284;13.126;2022-10-23T04:04:10;0.50;;;0.30;;
41530;SDS011;58990;46.284;13.126;2022-10-23T04:06:36;1.35;;;0.20;;
41530;SDS011;58990;46.284;13.126;2022-10-23T04:09:02;0.32;;;0.32;;
41530;SDS011;58990;46.284;13.126;2022-10-23T04:11:28;0.47;;;0.35;;
41530;SDS011;58990;46.284;13.126;2022-10-23T04:13:54;0.20;;;0.20;;
41530;SDS011;58990;46.284;13.126;2022-10-23T04:16:19;0.30;;;0.30;;
41530;SDS011;58990;46.284;13.126;2022-10-23T04:18:45;0.20;;;0.20;;
41530;SDS011;58990;46.284;13.126;2022-10-23T04:21:11;0.40;;;0.40;;
41530;SDS011;58990;46.284;13.126;2022-10-23T04:23:36;0.10;;;0.10;;
41530;SDS011;58990;46.284;13.126;2022-10-23T04:26:02;0.20;;;0.20;;
41530;SDS011;58990;46.284;13.126;2022-10-23T04:28:28;0.13;;;0.13;;
41530;SDS011;58990;46.284;13.126;2022-10-23T04:30:53;0.10;;;0.10;;
41530;SDS011;58990;46.284;13.126;2022-10-23T04:33:19;0.32;;;0.32;;
41530;SDS011;58990;46.284;13.126;2022-10-23T04:35:44;0.20;;;0.20;;
41530;SDS011;58990;46.284;13.126;2022-10-23T04:38:10;2.05;;;0.40;;
41530;SDS011;58990;46.284;13.126;2022-10-23T04:40:35;1.13;;;0.25;;
41530;SDS011;58990;46.284;13.126;2022-10-23T04:43:01;0.73;;;0.32;;
41530;SDS011;58990;46.284;13.126;2022-10-23T04:45:27;0.25;;;0.25;;
41530;SDS011;58990;46.284;13.126;2022-10-23T04:47:52;0.30;;;0.30;;
41530;SDS011;58990;46.284;13.126;2022-10-23T04:50:18;0.55;;;0.30;;
41530;SDS011;58990;46.284;13.126;2022-10-23T04:52:44;0.20;;;0.20;;
41530;SDS011;58990;46.284;13.126;2022-10-23T04:55:09;0.60;;;0.32;;
41530;SDS011;58990;46.284;13.126;2022-10-23T04:57:35;0.25;;;0.25;;
41530;SDS011;58990;46.284;13.126;2022-10-23T05:00:01;2.63;;;0.30;;
41530;SDS011;58990;46.284;13.126;2022-10-23T05:02:29;0.30;;;0.20;;
41530;SDS011;58990;46.284;13.126;2022-10-23T05:04:55;0.63;;;0.40;;
41530;SDS011;58990;46.284;13.126;2022-10-23T05:07:20;0.30;;;0.30;;
41530;SDS011;58990;46.284;13.126;2022-10-23T05:09:45;0.30;;;0.30;;
41530;SDS011;58990;46.284;13.126;2022-10-23T05:12:11;0.52;;;0.40;;
41530;SDS011;58990;46.284;13.126;2022-10-23T05:14:36;0.20;;;0.20;;
41530;SDS011;58990;46.284;13.126;2022-10-23T05:17:03;0.20;;;0.20;;
41530;SDS011;58990;46.284;13.126;2022-10-23T05:19:37;0.43;;;0.30;;
41530;SDS011;58990;46.284;13.126;2022-10-23T05:22:06;1.52;;;0.32;;
41530;SDS011;58990;46.284;13.126;2022-10-23T05:24:33;0.60;;;0.45;;
41530;SDS011;58990;46.284;13.126;2022-10-23T05:26:58;1.15;;;0.32;;
41530;SDS011;58990;46.284;13.126;2022-10-23T05:29:24;0.75;;;0.50;;
41530;SDS011;58990;46.284;13.126;2022-10-23T05:31:50;0.38;;;0.38;;
41530;SDS011;58990;46.284;13.126;2022-10-23T05:34:20;1.67;;;0.47;;
41530;SDS011;58990;46.284;13.126;2022-10-23T05:36:48;0.65;;;0.30;;
41530;SDS011;58990;46.284;13.126;2022-10-23T05:39:13;35.85;;;1.17;;
41530;SDS011;58990;46.284;13.126;2022-10-23T05:41:39;0.10;;;0.10;;
41530;SDS011;58990;46.284;13.126;2022-10-23T05:44:05;0.20;;;0.20;;
41530;SDS011;58990;46.284;13.126;2022-10-23T05:46:30;0.32;;;0.30;;
41530;SDS011;58990;46.284;13.126;2022-10-23T05:48:55;0.20;;;0.20;;
41530;SDS011;58990;46.284;13.126;2022-10-23T05:51:21;0.13;;;0.13;;
41530;SDS011;58990;46.284;13.126;2022-10-23T05:53:50;1.77;;;0.30;;
41530;SDS011;58990;46.284;13.126;2022-10-23T05:56:17;0.20;;;0.20;;
41530;SDS011;58990;46.284;13.126;2022-10-23T05:58:43;0.30;;;0.30;;
41530;SDS011;58990;46.284;13.126;2022-10-23T06:01:09;1.55;;;0.22;;
41530;SDS011;58990;46.284;13.126;2022-10-23T06:03:36;0.20;;;0.20;;
41530;SDS011;58990;46.284;13.126;2022-10-23T06:06:03;0.32;;;0.32;;
41530;SDS011;58990;46.284;13.126;2022-10-23T06:08:29;0.30;;;0.30;;
41530;SDS011;58990;46.284;13.126;2022-10-23T06:10:55;0.30;;;0.30;;
41530;SDS011;58990;46.284;13.126;2022-10-23T06:13:20;1.05;;;0.32;;
41530;SDS011;58990;46.284;13.126;2022-10-23T06:15:46;0.22;;;0.22;;
41530;SDS011;58990;46.284;13.126;2022-10-23T06:18:12;5.25;;;0.47;;
41530;SDS011;58990;46.284;13.126;2022-10-23T06:20:37;0.25;;;0.25;;
41530;SDS011;58990;46.284;13.126;2022-10-23T06:23:04;0.30;;;0.30;;
41530;SDS011;58990;46.284;13.126;2022-10-23T06:25:30;0.30;;;0.30;;
41530;SDS011;58990;46.284;13.126;2022-10-23T06:27:55;0.28;;;0.28;;
41530;SDS011;58990;46.284;13.126;2022-10-23T06:30:21;1.13;;;0.20;;
41530;SDS011;58990;46.284;13.126;2022-10-23T06:32:46;0.57;;;0.40;;
41530;SDS011;58990;46.284;13.126;2022-10-23T06:35:11;0.20;;;0.20;;
41530;SDS011;58990;46.284;13.126;2022-10-23T06:37:37;0.28;;;0.20;;
41530;SDS011;58990;46.284;13.126;2022-10-23T06:40:03;0.30;;;0.30;;
41530;SDS011;58990;46.284;13.126;2022-10-23T06:42:29;0.20;;;0.20;;
41530;SDS011;58990;46.284;13.126;2022-10-23T06:44:55;1.38;;;0.57;;
41530;SDS011;58990;46.284;13.126;2022-10-23T06:47:20;0.38;;;0.38;;
41530;SDS011;58990;46.284;13.126;2022-10-23T06:49:46;2.97;;;0.65;;
41530;SDS011;58990;46.284;13.126;2022-10-23T06:52:11;0.52;;;0.30;;
41530;SDS011;58990;46.284;13.126;2022-10-23T06:54:36;0.30;;;0.30;;
41530;SDS011;58990;46.284;13.126;2022-10-23T06:57:02;0.85;;;0.57;;
41530;SDS011;58990;46.284;13.126;2022-10-23T06:59:27;0.30;;;0.30;;
41530;SDS011;58990;46.284;13.126;2022-10-23T07:01:53;0.30;;;0.30;;
41530;SDS011;58990;46.284;13.126;2022-10-23T07:04:18;0.20;;;0.20;;
41530;SDS011;58990;46.284;13.126;2022-10-23T07:06:43;1.27;;;0.40;;
41530;SDS011;58990;46.284;13.126;2022-10-23T07:09:09;1.75;;;0.60;;
41530;SDS011;58990;46.284;13.126;2022-10-23T07:11:34;0.85;;;0.40;;
41530;SDS011;58990;46.284;13.126;2022-10-23T07:14:00;0.45;;;0.45;;
41530;SDS011;58990;46.284;13.126;2022-10-23T07:16:26;0.98;;;0.50;;
41530;SDS011;58990;46.284;13.126;2022-10-23T07:18:55;0.30;;;0.30;;
41530;SDS011;58990;46.284;13.126;2022-10-23T07:21:24;0.35;;;0.35;;
41530;SDS011;58990;46.284;13.126;2022-10-23T07:23:50;1.00;;;0.30;;
41530;SDS011;58990;46.284;13.126;2022-10-23T07:26:16;0.40;;;0.40;;
41530;SDS011;58990;46.284;13.126;2022-10-23T07:28:42;0.30;;;0.30;;
41530;SDS011;58990;46.284;13.126;2022-10-23T07:31:09;0.50;;;0.30;;
41530;SDS011;58990;46.284;13.126;2022-10-23T07:33:35;2.65;;;0.35;;
41530;SDS011;58990;46.284;13.126;2022-10-23T07:36:02;0.43;;;0.20;;
41530;SDS011;58990;46.284;13.126;2022-10-23T07:38:29;0.40;;;0.40;;
41530;SDS011;58990;46.284;13.126;2022-10-23T07:40:57;0.20;;;0.20;;
41530;SDS011;58990;46.284;13.126;2022-10-23T07:43:24;0.47;;;0.47;;
41530;SDS011;58990;46.284;13.126;2022-10-23T07:45:50;0.57;;;0.28;;
41530;SDS011;58990;46.284;13.126;2022-10-23T07:48:15;0.25;;;0.25;;
41530;SDS011;58990;46.284;13.126;2022-10-23T07:50:41;0.40;;;0.40;;
41530;SDS011;58990;46.284;13.126;2022-10-23T07:53:08;0.40;;;0.40;;
41530;SDS011;58990;46.284;13.126;2022-10-23T07:55:40;0.22;;;0.22;;
41530;SDS011;58990;46.284;13.126;2022-10-23T07:58:06;0.47;;;0.47;;
41530;SDS011;58990;46.284;13.126;2022-10-23T08:00:31;0.30;;;0.30;;
41530;SDS011;58990;46.284;13.126;2022-10-23T08:02:56;0.20;;;0.20;;
41530;SDS011;58990;46.284;13.126;2022-10-23T08:05:22;0.20;;;0.20;;
41530;SDS011;58990;46.284;13.126;2022-10-23T08:07:47;0.60;;;0.30;;
41530;SDS011;58990;46.284;13.126;2022-10-23T08:10:12;0.80;;;0.30;;
41530;SDS011;58990;46.284;13.126;2022-10-23T08:12:38;2.50;;;0.32;;
41530;SDS011;58990;46.284;13.126;2022-10-23T08:15:03;0.35;;;0.35;;
41530;SDS011;58990;46.284;13.126;2022-10-23T08:17:29;1.42;;;0.40;;
41530;SDS011;58990;46.284;13.126;2022-10-23T08:19:54;1.40;;;0.45;;
41530;SDS011;58990;46.284;13.126;2022-10-23T08:22:20;0.20;;;0.20;;
41530;SDS011;58990;46.284;13.126;2022-10-23T08:24:45;0.40;;;0.40;;
41530;SDS011;58990;46.284;13.126;2022-10-23T08:27:11;0.70;;;0.47;;
41530;SDS011;58990;46.284;13.126;2022-10-23T08:29:36;1.80;;;0.52;;
41530;SDS011;58990;46.284;13.126;2022-10-23T08:32:01;0.65;;;0.65;;
41530;SDS011;58990;46.284;13.126;2022-10-23T08:34:27;0.40;;;0.30;;
41530;SDS011;58990;46.284;13.126;2022-10-23T08:36:52;0.30;;;0.30;;
41530;SDS011;58990;46.284;13.126;2022-10-23T08:39:18;0.75;;;0.40;;
41530;SDS011;58990;46.284;13.126;2022-10-23T08:41:47;0.30;;;0.30;;
41530;SDS011;58990;46.284;13.126;2022-10-23T08:57:34;2.10;;;0.40;;
41530;SDS011;58990;46.284;13.126;2022-10-23T09:00:07;0.43;;;0.35;;
41530;SDS011;58990;46.284;13.126;2022-10-23T09:02:39;0.35;;;0.30;;
41530;SDS011;58990;46.284;13.126;2022-10-23T09:05:12;0.52;;;0.40;;
41530;SDS011;58990;46.284;13.126;2022-10-23T09:07:43;0.93;;;0.30;;
41530;SDS011;58990;46.284;13.126;2022-10-23T09:23:44;0.22;;;0.20;;
41530;SDS011;58990;46.284;13.126;2022-10-23T09:26:14;0.32;;;0.32;;
41530;SDS011;58990;46.284;13.126;2022-10-23T09:28:44;0.82;;;0.50;;
41530;SDS011;58990;46.284;13.126;2022-10-23T09:31:12;0.10;;;0.10;;
41530;SDS011;58990;46.284;13.126;2022-10-23T09:33:37;1.00;;;0.55;;
41530;SDS011;58990;46.284;13.126;2022-10-23T09:36:05;1.20;;;0.70;;
41530;SDS011;58990;46.284;13.126;2022-10-23T09:38:36;0.35;;;0.35;;
41530;SDS011;58990;46.284;13.126;2022-10-23T09:54:31;0.88;;;0.63;;
41530;SDS011;58990;46.284;13.126;2022-10-23T09:57:03;0.30;;;0.30;;
41530;SDS011;58990;46.284;13.126;2022-10-23T09:59:39;0.77;;;0.60;;
41530;SDS011;58990;46.284;13.126;2022-10-23T10:04:55;0.38;;;0.28;;
41530;SDS011;58990;46.284;13.126;2022-10-23T10:07:22;1.45;;;0.63;;
41530;SDS011;58990;46.284;13.126;2022-10-23T10:09:49;0.40;;;0.40;;
41530;SDS011;58990;46.284;13.126;2022-10-23T10:12:31;0.40;;;0.40;;
41530;SDS011;58990;46.284;13.126;2022-10-23T10:21:03;0.40;;;0.40;;
41530;SDS011;58990;46.284;13.126;2022-10-23T10:34:16;1.52;;;0.68;;
41530;SDS011;58990;46.284;13.126;2022-10-23T10:50:18;0.45;;;0.45;;
41530;SDS011;58990;46.284;13.126;2022-10-23T11:06:11;1.05;;;0.73;;
41530;SDS011;58990;46.284;13.126;2022-10-23T11:08:39;0.93;;;0.70;;
41530;SDS011;58990;46.284;13.126;2022-10-23T11:13:59;0.93;;;0.73;;
41530;SDS011;58990;46.284;13.126;2022-10-23T11:16:27;1.65;;;1.00;;
41530;SDS011;58990;46.284;13.126;2022-10-23T11:22:23;1.45;;;1.10;;
41530;SDS011;58990;46.284;13.126;2022-10-23T11:38:25;1.10;;;1.00;;
41530;SDS011;58990;46.284;13.126;2022-10-23T11:40:55;1.38;;;0.60;;
41530;SDS011;58990;46.284;13.126;2022-10-23T11:46:10;1.33;;;1.23;;
41530;SDS011;58990;46.284;13.126;2022-10-23T11:48:56;1.13;;;0.77;;
41530;SDS011;58990;46.284;13.126;2022-10-23T11:51:26;0.90;;;0.80;;
41530;SDS011;58990;46.284;13.126;2022-10-23T12:12:56;2.78;;;1.65;;
41530;SDS011;58990;46.284;13.126;2022-10-23T12:15:23;4.88;;;3.08;;
41530;SDS011;58990;46.284;13.126;2022-10-23T12:17:53;2.78;;;1.95;;
41530;SDS011;58990;46.284;13.126;2022-10-23T12:40:12;2.00;;;1.23;;
41530;SDS011;58990;46.284;13.126;2022-10-23T12:42:37;1.70;;;1.33;;
41530;SDS011;58990;46.284;13.126;2022-10-23T12:47:50;2.95;;;1.70;;
41530;SDS011;58990;46.284;13.126;2022-10-23T12:50:17;3.17;;;1.85;;
41530;SDS011;58990;46.284;13.126;2022-10-23T12:52:58;1.58;;;1.40;;
41530;SDS011;58990;46.284;13.126;2022-10-23T12:55:28;3.35;;;1.75;;
41530;SDS011;58990;46.284;13.126;2022-10-23T12:57:55;3.28;;;1.92;;
41530;SDS011;58990;46.284;13.126;2022-10-23T13:00:23;2.85;;;1.55;;
41530;SDS011;58990;46.284;13.126;2022-10-23T13:03:02;2.55;;;1.33;;
41530;SDS011;58990;46.284;13.126;2022-10-23T13:05:28;1.90;;;1.63;;
41530;SDS011;58990;46.284;13.126;2022-10-23T13:07:56;3.90;;;1.88;;
41530;SDS011;58990;46.284;13.126;2022-10-23T13:10:23;2.50;;;1.90;;
41530;SDS011;58990;46.284;13.126;2022-10-23T13:13:03;3.03;;;2.00;;
41530;SDS011;58990;46.284;13.126;2022-10-23T13:15:38;2.90;;;1.98;;
41530;SDS011;58990;46.284;13.126;2022-10-23T13:18:05;2.63;;;1.83;;
41530;SDS011;58990;46.284;13.126;2022-10-23T13:20:33;4.25;;;2.10;;
41530;SDS011;58990;46.284;13.126;2022-10-23T13:25:56;4.60;;;2.45;;
41530;SDS011;58990;46.284;13.126;2022-10-23T13:28:33;4.22;;;1.98;;
41530;SDS011;58990;46.284;13.126;2022-10-23T13:36:35;3.22;;;2.10;;
41530;SDS011;58990;46.284;13.126;2022-10-23T13:41:50;2.58;;;2.13;;
41530;SDS011;58990;46.284;13.126;2022-10-23T13:44:20;4.55;;;2.47;;
41530;SDS011;58990;46.284;13.126;2022-10-23T13:46:48;3.50;;;2.40;;
41530;SDS011;58990;46.284;13.126;2022-10-23T13:49:14;4.72;;;2.30;;
41530;SDS011;58990;46.284;13.126;2022-10-23T13:51:43;5.28;;;2.33;;
41530;SDS011;58990;46.284;13.126;2022-10-23T13:54:15;3.50;;;2.25;;
41530;SDS011;58990;46.284;13.126;2022-10-23T13:56:43;5.37;;;2.20;;
41530;SDS011;58990;46.284;13.126;2022-10-23T13:59:09;6.38;;;2.63;;
41530;SDS011;58990;46.284;13.126;2022-10-23T14:01:35;4.90;;;3.03;;
41530;SDS011;58990;46.284;13.126;2022-10-23T14:04:01;4.55;;;2.65;;
41530;SDS011;58990;46.284;13.126;2022-10-23T14:06:28;5.78;;;3.15;;
41530;SDS011;58990;46.284;13.126;2022-10-23T14:08:54;5.45;;;2.60;;
41530;SDS011;58990;46.284;13.126;2022-10-23T14:11:19;4.88;;;2.97;;
41530;SDS011;58990;46.284;13.126;2022-10-23T14:13:45;7.13;;;2.50;;
41530;SDS011;58990;46.284;13.126;2022-10-23T14:16:12;7.68;;;2.60;;
41530;SDS011;58990;46.284;13.126;2022-10-23T14:18:38;5.93;;;2.75;;
41530;SDS011;58990;46.284;13.126;2022-10-23T14:21:04;5.22;;;2.67;;
41530;SDS011;58990;46.284;13.126;2022-10-23T14:23:31;4.35;;;2.63;;
41530;SDS011;58990;46.284;13.126;2022-10-23T14:26:00;5.05;;;2.72;;
41530;SDS011;58990;46.284;13.126;2022-10-23T14:28:30;4.43;;;2.97;;
41530;SDS011;58990;46.284;13.126;2022-10-23T14:30:55;3.50;;;2.50;;
41530;SDS011;58990;46.284;13.126;2022-10-23T14:33:21;5.22;;;3.03;;
41530;SDS011;58990;46.284;13.126;2022-10-23T14:35:48;5.78;;;2.67;;
41530;SDS011;58990;46.284;13.126;2022-10-23T14:38:14;4.25;;;2.60;;
41530;SDS011;58990;46.284;13.126;2022-10-23T14:40:39;4.95;;;2.65;;
41530;SDS011;58990;46.284;13.126;2022-10-23T14:43:05;6.10;;;2.80;;
41530;SDS011;58990;46.284;13.126;2022-10-23T14:45:30;8.77;;;2.85;;
41530;SDS011;58990;46.284;13.126;2022-10-23T14:47:56;5.15;;;3.53;;
41530;SDS011;58990;46.284;13.126;2022-10-23T14:50:21;5.78;;;3.35;;
41530;SDS011;58990;46.284;13.126;2022-10-23T14:52:46;5.68;;;3.50;;
41530;SDS011;58990;46.284;13.126;2022-10-23T14:55:12;7.60;;;3.60;;
41530;SDS011;58990;46.284;13.126;2022-10-23T14:57:37;5.28;;;2.67;;
41530;SDS011;58990;46.284;13.126;2022-10-23T15:00:04;4.82;;;3.03;;
41530;SDS011;58990;46.284;13.126;2022-10-23T15:02:30;7.57;;;3.50;;
41530;SDS011;58990;46.284;13.126;2022-10-23T15:04:56;5.20;;;3.40;;
41530;SDS011;58990;46.284;13.126;2022-10-23T15:07:21;10.18;;;4.68;;
41530;SDS011;58990;46.284;13.126;2022-10-23T15:09:46;10.80;;;5.10;;
41530;SDS011;58990;46.284;13.126;2022-10-23T15:12:14;9.07;;;4.30;;
41530;SDS011;58990;46.284;13.126;2022-10-23T15:14:40;10.00;;;5.68;;
41530;SDS011;58990;46.284;13.126;2022-10-23T15:17:05;10.48;;;4.80;;
41530;SDS011;58990;46.284;13.126;2022-10-23T15:19:30;9.95;;;5.22;;
41530;SDS011;58990;46.284;13.126;2022-10-23T15:21:56;7.22;;;4.63;;
41530;SDS011;58990;46.284;13.126;2022-10-23T15:24:21;5.90;;;3.78;;
41530;SDS011;58990;46.284;13.126;2022-10-23T15:26:47;7.07;;;3.60;;
41530;SDS011;58990;46.284;13.126;2022-10-23T15:29:13;13.90;;;6.10;;
41530;SDS011;58990;46.284;13.126;2022-10-23T15:31:40;15.18;;;6.82;;
41530;SDS011;58990;46.284;13.126;2022-10-23T15:34:08;10.68;;;5.45;;
41530;SDS011;58990;46.284;13.126;2022-10-23T15:36:36;11.00;;;5.15;;
41530;SDS011;58990;46.284;13.126;2022-10-23T15:39:01;10.02;;;5.18;;
41530;SDS011;58990;46.284;13.126;2022-10-23T15:41:32;11.20;;;5.32;;
41530;SDS011;58990;46.284;13.126;2022-10-23T15:43:58;10.25;;;5.32;;
41530;SDS011;58990;46.284;13.126;2022-10-23T15:46:25;12.27;;;5.72;;
41530;SDS011;58990;46.284;13.126;2022-10-23T15:48:51;14.63;;;5.60;;
41530;SDS011;58990;46.284;13.126;2022-10-23T15:51:16;9.02;;;4.50;;
41530;SDS011;58990;46.284;13.126;2022-10-23T15:53:42;6.93;;;4.90;;
41530;SDS011;58990;46.284;13.126;2022-10-23T15:56:07;9.35;;;4.47;;
41530;SDS011;58990;46.284;13.126;2022-10-23T15:58:32;12.05;;;5.03;;
41530;SDS011;58990;46.284;13.126;2022-10-23T16:01:00;11.68;;;5.20;;
41530;SDS011;58990;46.284;13.126;2022-10-23T16:03:30;13.48;;;5.03;;
41530;SDS011;58990;46.284;13.126;2022-10-23T16:05:56;8.35;;;5.18;;
41530;SDS011;58990;46.284;13.126;2022-10-23T16:08:21;10.57;;;5.57;;
41530;SDS011;58990;46.284;13.126;2022-10-23T16:10:48;12.50;;;5.82;;
41530;SDS011;58990;46.284;13.126;2022-10-23T16:13:13;9.40;;;4.75;;
41530;SDS011;58990;46.284;13.126;2022-10-23T16:15:39;10.77;;;5.47;;
41530;SDS011;58990;46.284;13.126;2022-10-23T16:18:04;9.13;;;5.40;;
41530;SDS011;58990;46.284;13.126;2022-10-23T16:20:30;8.57;;;4.90;;
41530;SDS011;58990;46.284;13.126;2022-10-23T16:22:56;8.95;;;5.45;;
41530;SDS011;58990;46.284;13.126;2022-10-23T16:25:21;11.43;;;5.82;;
41530;SDS011;58990;46.284;13.126;2022-10-23T16:27:47;10.13;;;5.95;;
41530;SDS011;58990;46.284;13.126;2022-10-23T16:30:12;11.60;;;6.15;;
41530;SDS011;58990;46.284;13.126;2022-10-23T16:32:39;10.93;;;5.90;;
41530;SDS011;58990;46.284;13.126;2022-10-23T16:35:05;15.82;;;6.93;;
41530;SDS011;58990;46.284;13.126;2022-10-23T16:37:31;7.45;;;5.75;;
41530;SDS011;58990;46.284;13.126;2022-10-23T16:39:57;12.02;;;6.68;;
41530;SDS011;58990;46.284;13.126;2022-10-23T16:42:23;8.45;;;6.40;;
41530;SDS011;58990;46.284;13.126;2022-10-23T16:44:49;9.77;;;5.78;;
41530;SDS011;58990;46.284;13.126;2022-10-23T16:47:15;10.40;;;6.25;;
41530;SDS011;58990;46.284;13.126;2022-10-23T16:49:40;11.93;;;7.00;;
41530;SDS011;58990;46.284;13.126;2022-10-23T16:52:06;9.38;;;6.55;;
41530;SDS011;58990;46.284;13.126;2022-10-23T16:54:31;13.38;;;7.55;;
41530;SDS011;58990;46.284;13.126;2022-10-23T16:56:56;12.30;;;6.35;;
41530;SDS011;58990;46.284;13.126;2022-10-23T16:59:22;11.32;;;6.70;;
41530;SDS011;58990;46.284;13.126;2022-10-23T17:01:48;15.35;;;6.07;;
41530;SDS011;58990;46.284;13.126;2022-10-23T17:04:13;12.30;;;6.45;;
41530;SDS011;58990;46.284;13.126;2022-10-23T17:06:39;12.43;;;6.75;;
41530;SDS011;58990;46.284;13.126;2022-10-23T17:09:05;11.27;;;7.55;;
41530;SDS011;58990;46.284;13.126;2022-10-23T17:11:31;9.90;;;6.50;;
41530;SDS011;58990;46.284;13.126;2022-10-23T17:27:07;9.05;;;5.90;;
41530;SDS011;58990;46.284;13.126;2022-10-23T17:29:33;11.10;;;6.03;;
41530;SDS011;58990;46.284;13.126;2022-10-23T17:31:59;11.77;;;7.18;;
41530;SDS011;58990;46.284;13.126;2022-10-23T17:34:24;12.98;;;7.32;;
41530;SDS011;58990;46.284;13.126;2022-10-23T17:36:51;13.45;;;6.25;;
41530;SDS011;58990;46.284;13.126;2022-10-23T17:39:20;14.85;;;7.18;;
41530;SDS011;58990;46.284;13.126;2022-10-23T17:41:47;14.57;;;7.82;;
41530;SDS011;58990;46.284;13.126;2022-10-23T17:44:12;20.15;;;9.48;;
41530;SDS011;58990;46.284;13.126;2022-10-23T17:46:38;21.05;;;11.50;;
41530;SDS011;58990;46.284;13.126;2022-10-23T17:49:03;16.98;;;9.30;;
41530;SDS011;58990;46.284;13.126;2022-10-23T17:51:31;14.50;;;8.73;;
41530;SDS011;58990;46.284;13.126;2022-10-23T17:53:59;24.27;;;8.77;;
41530;SDS011;58990;46.284;13.126;2022-10-23T17:56:27;14.77;;;8.20;;
41530;SDS011;58990;46.284;13.126;2022-10-23T17:58:57;17.30;;;8.07;;
41530;SDS011;58990;46.284;13.126;2022-10-23T18:01:26;15.75;;;7.95;;
41530;SDS011;58990;46.284;13.126;2022-10-23T18:03:53;15.10;;;7.80;;
41530;SDS011;58990;46.284;13.126;2022-10-23T18:06:22;13.27;;;8.32;;
41530;SDS011;58990;46.284;13.126;2022-10-23T18:08:50;13.07;;;7.45;;
41530;SDS011;58990;46.284;13.126;2022-10-23T18:11:20;17.48;;;7.30;;
41530;SDS011;58990;46.284;13.126;2022-10-23T18:13:47;17.80;;;8.05;;
41530;SDS011;58990;46.284;13.126;2022-10-23T18:16:13;15.70;;;8.50;;
41530;SDS011;58990;46.284;13.126;2022-10-23T18:18:40;16.63;;;7.97;;
41530;SDS011;58990;46.284;13.126;2022-10-23T18:21:06;14.25;;;7.50;;